Time;durP1;ratioP1;P1;durP2;ratioP2;P2;SDS_P1;SDS_P2;PMS_P1;PMS_P2;Temp;Humidity;BMP_temperature;BMP_pressure;BME280_temperature;BME280_humidity;BME280_pressure;Samples;Min_cycle;Max_cycle;Signal;HPM_P1;HPM_P2
2022/06/27 00:00:13;;;;;;;5.15;4.07;;;;;;;;;;4988971;28;20401;-81
2022/06/27 00:02:39;;;;;;;6.05;4.43;;;;;;;;;;4996147;28;20075;-78
2022/06/27 00:05:05;;;;;;;5.57;4.47;;;;;;;;;;4988924;28;20034;-79
2022/06/27 00:07:32;;;;;;;7.57;4.25;;;;;;;;;;4988985;28;20056;-80
2022/06/27 00:09:58;;;;;;;6.13;4.60;;;;;;;;;;5022352;28;20486;-79
2022/06/27 00:12:23;;;;;;;6.32;4.82;;;;;;;;;;4985882;28;20038;-80
2022/06/27 00:14:49;;;;;;;8.50;4.45;;;;;;;;;;4989291;28;20500;-80
2022/06/27 00:17:14;;;;;;;5.40;4.35;;;;;;;;;;5004137;28;20432;-81
2022/06/27 00:19:39;;;;;;;5.10;4.20;;;;;;;;;;5005959;28;20045;-80
2022/06/27 00:22:05;;;;;;;6.53;4.97;;;;;;;;;;4988916;28;20117;-80
2022/06/27 00:24:31;;;;;;;5.85;4.90;;;;;;;;;;4974481;28;20481;-81
2022/06/27 00:26:56;;;;;;;5.70;4.60;;;;;;;;;;4973407;28;20034;-80
2022/06/27 00:29:22;;;;;;;4.70;3.88;;;;;;;;;;4974816;28;20553;-81
2022/06/27 00:31:50;;;;;;;5.70;4.40;;;;;;;;;;4983086;28;20030;-81
2022/06/27 00:34:16;;;;;;;5.65;4.47;;;;;;;;;;4970964;28;20056;-80
2022/06/27 00:36:42;;;;;;;5.97;4.88;;;;;;;;;;4973869;28;20887;-80
2022/06/27 00:39:07;;;;;;;6.03;4.50;;;;;;;;;;4966278;28;20244;-80
2022/06/27 00:41:33;;;;;;;5.57;4.55;;;;;;;;;;5005112;28;20108;-80
2022/06/27 00:43:58;;;;;;;5.10;4.30;;;;;;;;;;4973739;28;20053;-81
2022/06/27 00:46:23;;;;;;;6.70;5.10;;;;;;;;;;4975482;28;20040;-81
2022/06/27 00:48:49;;;;;;;6.15;4.68;;;;;;;;;;4988484;28;20029;-82
2022/06/27 00:51:15;;;;;;;5.25;4.50;;;;;;;;;;4988208;28;20493;-82
2022/06/27 00:53:41;;;;;;;6.70;4.72;;;;;;;;;;4972611;28;20029;-81
2022/06/27 00:56:06;;;;;;;8.98;5.10;;;;;;;;;;4986306;28;20089;-80
2022/06/27 00:58:32;;;;;;;6.38;4.90;;;;;;;;;;4973780;28;20049;-81
2022/06/27 01:00:57;;;;;;;6.25;4.80;;;;;;;;;;4988399;28;20160;-81
2022/06/27 01:03:24;;;;;;;6.85;4.85;;;;;;;;;;4974069;28;20397;-80
2022/06/27 01:05:52;;;;;;;6.47;4.57;;;;;;;;;;4962575;28;20571;-80
2022/06/27 01:08:19;;;;;;;7.40;5.05;;;;;;;;;;4988245;28;20285;-80
2022/06/27 01:10:45;;;;;;;6.05;4.78;;;;;;;;;;4972370;28;20037;-80
2022/06/27 01:13:11;;;;;;;6.60;5.05;;;;;;;;;;4970538;28;20687;-80
2022/06/27 01:15:36;;;;;;;6.78;5.05;;;;;;;;;;4973305;28;20034;-81
2022/06/27 01:18:02;;;;;;;5.28;4.68;;;;;;;;;;4962501;28;20047;-80
2022/06/27 01:20:27;;;;;;;6.78;4.85;;;;;;;;;;4979795;28;20432;-80
2022/06/27 01:22:53;;;;;;;5.60;4.90;;;;;;;;;;4973759;28;20497;-81
2022/06/27 01:25:20;;;;;;;6.80;4.75;;;;;;;;;;4972032;28;20041;-80
2022/06/27 01:27:45;;;;;;;5.63;4.60;;;;;;;;;;4998868;28;20030;-80
2022/06/27 01:30:11;;;;;;;6.20;5.28;;;;;;;;;;5004443;28;20130;-80
2022/06/27 01:32:37;;;;;;;6.75;5.38;;;;;;;;;;5004384;28;20041;-80
2022/06/27 01:35:03;;;;;;;5.97;4.95;;;;;;;;;;4988224;28;20045;-80
2022/06/27 01:37:29;;;;;;;5.78;5.03;;;;;;;;;;4997532;28;20037;-80
2022/06/27 01:39:56;;;;;;;6.38;4.85;;;;;;;;;;5000420;28;20029;-80
2022/06/27 01:42:22;;;;;;;7.10;5.18;;;;;;;;;;5003274;28;20042;-80
2022/06/27 01:44:48;;;;;;;7.00;5.30;;;;;;;;;;4991614;28;20107;-80
2022/06/27 01:47:16;;;;;;;5.60;4.90;;;;;;;;;;5003918;28;20080;-80
2022/06/27 01:49:41;;;;;;;7.07;5.47;;;;;;;;;;4980113;28;20034;-81
2022/06/27 01:52:07;;;;;;;6.93;4.88;;;;;;;;;;4988969;28;20033;-80
2022/06/27 01:54:33;;;;;;;6.75;5.32;;;;;;;;;;4998941;28;20520;-80
2022/06/27 01:56:59;;;;;;;6.50;5.07;;;;;;;;;;4987377;28;20042;-80
2022/06/27 01:59:29;;;;;;;5.75;4.78;;;;;;;;;;4985701;28;20546;-80
2022/06/27 02:01:58;;;;;;;6.13;5.10;;;;;;;;;;4977563;28;20695;-80
2022/06/27 02:04:23;;;;;;;7.13;5.43;;;;;;;;;;4987613;28;20034;-80
2022/06/27 02:06:49;;;;;;;6.32;5.10;;;;;;;;;;4996059;28;20034;-81
2022/06/27 02:09:15;;;;;;;7.20;5.35;;;;;;;;;;5004333;28;20038;-80
2022/06/27 02:11:43;;;;;;;6.53;5.35;;;;;;;;;;5003703;28;20038;-80
2022/06/27 02:14:09;;;;;;;6.60;5.28;;;;;;;;;;4987208;28;20052;-81
2022/06/27 02:16:34;;;;;;;7.28;5.55;;;;;;;;;;5003685;28;20037;-81
2022/06/27 02:18:59;;;;;;;6.65;5.18;;;;;;;;;;4999576;28;20121;-81
2022/06/27 02:21:26;;;;;;;7.28;5.25;;;;;;;;;;4980229;28;20038;-81
2022/06/27 02:23:53;;;;;;;7.05;5.70;;;;;;;;;;5020308;28;20054;-82
2022/06/27 02:26:24;;;;;;;5.97;5.20;;;;;;;;;;4996639;28;20092;-82
2022/06/27 02:28:51;;;;;;;6.82;5.60;;;;;;;;;;4992997;28;20117;-81
2022/06/27 02:31:16;;;;;;;6.63;5.38;;;;;;;;;;4980856;28;20050;-81
2022/06/27 02:33:47;;;;;;;7.47;5.57;;;;;;;;;;4998372;28;20047;-79
2022/06/27 02:36:16;;;;;;;7.75;5.72;;;;;;;;;;5017956;28;20044;-81
2022/06/27 02:38:43;;;;;;;5.75;4.75;;;;;;;;;;5003335;28;20026;-80
2022/06/27 02:41:16;;;;;;;6.88;5.35;;;;;;;;;;4989321;28;20042;-81
2022/06/27 02:43:45;;;;;;;6.50;5.45;;;;;;;;;;5024119;28;20061;-80
2022/06/27 02:46:13;;;;;;;7.32;5.90;;;;;;;;;;4989701;28;20087;-81
2022/06/27 02:48:39;;;;;;;6.40;5.50;;;;;;;;;;5006629;28;20477;-81
2022/06/27 02:51:08;;;;;;;7.18;5.97;;;;;;;;;;4991323;28;20053;-81
2022/06/27 02:53:43;;;;;;;7.18;5.78;;;;;;;;;;5006971;28;20049;-80
2022/06/27 02:56:10;;;;;;;6.55;5.30;;;;;;;;;;5006898;28;20173;-80
2022/06/27 02:58:47;;;;;;;9.65;6.38;;;;;;;;;;5007268;28;20120;-81
2022/06/27 03:01:13;;;;;;;7.20;5.97;;;;;;;;;;4990108;28;20061;-81
2022/06/27 03:03:40;;;;;;;6.10;5.10;;;;;;;;;;4998228;28;20107;-81
2022/06/27 03:06:06;;;;;;;;;;;;;;;;;;5007469;28;20100;-81
2022/06/27 03:08:42;;;;;;;8.05;6.25;;;;;;;;;;5022866;28;20373;-80
2022/06/27 03:11:10;;;;;;;7.78;5.57;;;;;;;;;;4990490;28;20555;-80
2022/06/27 03:13:36;;;;;;;8.10;6.45;;;;;;;;;;4999280;28;20032;-81
2022/06/27 03:16:01;;;;;;;7.57;6.40;;;;;;;;;;4990693;28;20506;-81
2022/06/27 03:18:27;;;;;;;7.30;6.20;;;;;;;;;;5006813;28;20747;-81
2022/06/27 03:20:53;;;;;;;6.65;5.93;;;;;;;;;;4974095;28;20042;-80
2022/06/27 03:23:19;;;;;;;10.18;6.53;;;;;;;;;;4991845;28;20057;-81
2022/06/27 03:25:44;;;;;;;7.35;6.18;;;;;;;;;;4982211;28;20486;-80
2022/06/27 03:28:09;;;;;;;7.55;6.07;;;;;;;;;;5006487;28;20034;-80
2022/06/27 03:30:35;;;;;;;6.95;5.93;;;;;;;;;;4994104;28;20501;-81
2022/06/27 03:33:00;;;;;;;7.15;5.88;;;;;;;;;;4990234;28;20073;-81
2022/06/27 03:35:25;;;;;;;8.13;6.40;;;;;;;;;;4986792;28;20053;-80
2022/06/27 03:37:51;;;;;;;6.78;5.65;;;;;;;;;;4990241;28;20026;-80
2022/06/27 03:40:17;;;;;;;7.30;6.00;;;;;;;;;;5005992;28;20555;-81
2022/06/27 03:42:42;;;;;;;7.45;6.43;;;;;;;;;;5006302;28;20485;-80
2022/06/27 03:45:08;;;;;;;6.50;5.53;;;;;;;;;;4990750;28;20045;-81
2022/06/27 03:47:48;;;;;;;7.63;6.35;;;;;;;;;;4989869;28;20026;-81
2022/06/27 03:50:14;;;;;;;6.53;5.72;;;;;;;;;;5006303;28;20080;-81
2022/06/27 03:52:43;;;;;;;6.70;5.95;;;;;;;;;;4999049;28;20042;-81
2022/06/27 03:55:09;;;;;;;7.85;6.10;;;;;;;;;;5006640;28;20396;-81
2022/06/27 03:57:39;;;;;;;7.03;5.73;;;;;;;;;;4995189;28;20038;-81
2022/06/27 04:00:08;;;;;;;6.97;6.07;;;;;;;;;;5022444;28;20073;-81
2022/06/27 04:02:34;;;;;;;6.13;5.38;;;;;;;;;;4988941;28;20026;-81
2022/06/27 04:05:00;;;;;;;6.50;5.47;;;;;;;;;;5006949;28;20042;-81
2022/06/27 04:07:25;;;;;;;7.43;5.85;;;;;;;;;;4999371;28;20092;-82
2022/06/27 04:09:51;;;;;;;7.20;5.70;;;;;;;;;;4983960;28;20038;-81
2022/06/27 04:12:16;;;;;;;9.40;5.63;;;;;;;;;;5021435;28;20049;-80
2022/06/27 04:14:41;;;;;;;6.93;5.50;;;;;;;;;;4991339;28;20547;-80
2022/06/27 04:17:07;;;;;;;8.15;5.85;;;;;;;;;;4999962;28;20041;-80
2022/06/27 04:19:32;;;;;;;7.10;6.00;;;;;;;;;;5006013;28;20093;-80
2022/06/27 04:22:00;;;;;;;6.78;5.32;;;;;;;;;;5005116;28;20046;-81
2022/06/27 04:24:25;;;;;;;6.97;5.82;;;;;;;;;;4973933;28;20163;-80
2022/06/27 04:26:51;;;;;;;6.15;5.47;;;;;;;;;;4988470;28;20552;-81
2022/06/27 04:29:16;;;;;;;6.07;5.47;;;;;;;;;;4977576;28;20041;-82
2022/06/27 04:31:42;;;;;;;6.72;5.60;;;;;;;;;;4988392;28;20501;-82
2022/06/27 04:34:07;;;;;;;6.57;5.60;;;;;;;;;;4972328;28;20042;-82
2022/06/27 04:36:33;;;;;;;6.60;5.15;;;;;;;;;;4977267;28;20511;-82
2022/06/27 04:38:58;;;;;;;7.28;5.57;;;;;;;;;;4981454;28;20045;-80
2022/06/27 04:41:25;;;;;;;6.65;5.38;;;;;;;;;;4973307;28;20499;-82
2022/06/27 04:43:52;;;;;;;7.43;5.20;;;;;;;;;;4973375;28;20026;-83
2022/06/27 04:46:18;;;;;;;7.55;5.70;;;;;;;;;;5006479;28;20034;-83
2022/06/27 04:48:45;;;;;;;8.25;5.20;;;;;;;;;;4981387;28;20059;-81
2022/06/27 04:51:13;;;;;;;6.47;5.15;;;;;;;;;;4987387;28;20467;-81
2022/06/27 04:53:38;;;;;;;6.38;5.03;;;;;;;;;;4975705;28;20074;-82
2022/06/27 04:56:05;;;;;;;5.75;4.47;;;;;;;;;;4976110;28;20429;-81
2022/06/27 04:58:31;;;;;;;5.65;4.70;;;;;;;;;;4977682;28;20121;-81
2022/06/27 05:01:00;;;;;;;6.28;4.30;;;;;;;;;;4982484;28;20040;-81
2022/06/27 05:03:26;;;;;;;5.43;4.45;;;;;;;;;;4972642;28;20141;-81
2022/06/27 05:05:52;;;;;;;5.77;5.00;;;;;;;;;;4977921;28;20035;-81
2022/06/27 05:08:17;;;;;;;6.45;5.05;;;;;;;;;;4990910;28;20038;-81
2022/06/27 05:10:43;;;;;;;5.00;4.25;;;;;;;;;;4978754;28;20505;-81
2022/06/27 05:13:09;;;;;;;5.63;4.57;;;;;;;;;;4989512;28;20038;-81
2022/06/27 05:15:37;;;;;;;5.97;4.50;;;;;;;;;;5008374;28;20037;-81
2022/06/27 05:18:02;;;;;;;5.38;4.32;;;;;;;;;;4975805;28;20120;-82
2022/06/27 05:20:30;;;;;;;6.93;4.38;;;;;;;;;;4991302;28;20501;-81
2022/06/27 05:22:55;;;;;;;;;;;;;;;;;;5011030;28;20045;-81
2022/06/27 05:25:21;;;;;;;5.28;4.13;;;;;;;;;;4990964;28;19917;-80
2022/06/27 05:27:49;;;;;;;5.45;4.00;;;;;;;;;;4993184;28;20029;-80
2022/06/27 05:30:17;;;;;;;4.93;4.10;;;;;;;;;;5009150;28;20038;-81
2022/06/27 05:32:42;;;;;;;5.97;4.57;;;;;;;;;;4987786;28;20116;-81
2022/06/27 05:35:08;;;;;;;5.53;4.10;;;;;;;;;;4999307;28;20544;-82
2022/06/27 05:37:35;;;;;;;5.30;4.07;;;;;;;;;;4997013;28;20148;-89
2022/06/27 05:40:02;;;;;;;4.70;3.97;;;;;;;;;;4987828;28;20440;-87
2022/06/27 05:42:28;;;;;;;5.80;3.97;;;;;;;;;;4988620;28;20128;-87
2022/06/27 05:44:55;;;;;;;5.22;3.80;;;;;;;;;;4981841;28;20123;-87
2022/06/27 05:47:21;;;;;;;5.20;3.85;;;;;;;;;;5003558;28;20069;-86
2022/06/27 05:49:47;;;;;;;4.70;3.90;;;;;;;;;;4987874;28;20030;-87
2022/06/27 05:52:12;;;;;;;6.03;4.13;;;;;;;;;;4999685;28;20034;-87
2022/06/27 05:54:38;;;;;;;4.82;3.60;;;;;;;;;;5004053;28;20034;-88
2022/06/27 05:57:05;;;;;;;4.95;3.90;;;;;;;;;;4986180;28;20672;-86
2022/06/27 05:59:31;;;;;;;5.28;4.13;;;;;;;;;;4998212;28;20080;-86
2022/06/27 06:01:59;;;;;;;4.78;3.80;;;;;;;;;;5003210;28;20042;-87
2022/06/27 06:04:25;;;;;;;5.50;4.07;;;;;;;;;;4971073;28;20612;-87
2022/06/27 06:06:51;;;;;;;10.07;4.60;;;;;;;;;;4996139;28;20034;-87
2022/06/27 06:09:16;;;;;;;6.22;3.70;;;;;;;;;;5000210;28;20049;-87
2022/06/27 06:11:43;;;;;;;4.70;3.83;;;;;;;;;;4993232;28;20042;-86
2022/06/27 06:14:08;;;;;;;11.70;4.63;;;;;;;;;;4987047;28;20258;-86
2022/06/27 06:16:34;;;;;;;4.25;3.33;;;;;;;;;;4984736;28;20038;-87
2022/06/27 06:18:59;;;;;;;19.13;6.63;;;;;;;;;;4991154;28;20038;-88
2022/06/27 06:21:25;;;;;;;13.60;5.18;;;;;;;;;;5007739;28;20061;-87
2022/06/27 06:23:52;;;;;;;5.28;3.22;;;;;;;;;;5001599;28;20501;-87
2022/06/27 06:26:21;;;;;;;5.43;3.70;;;;;;;;;;4991707;28;20083;-88
2022/06/27 06:28:51;;;;;;;4.00;3.20;;;;;;;;;;4990676;28;20088;-87
2022/06/27 06:31:23;;;;;;;5.03;3.30;;;;;;;;;;5004355;28;20073;-86
2022/06/27 06:33:53;;;;;;;4.15;3.08;;;;;;;;;;5008033;28;20034;-87
2022/06/27 06:36:21;;;;;;;4.72;3.05;;;;;;;;;;5007084;28;20104;-87
2022/06/27 06:38:47;;;;;;;4.25;3.00;;;;;;;;;;4995114;28;20061;-87
2022/06/27 06:41:14;;;;;;;4.57;3.15;;;;;;;;;;5007120;28;20037;-87
2022/06/27 06:43:40;;;;;;;4.53;3.05;;;;;;;;;;5000908;28;20246;-87
2022/06/27 06:46:05;;;;;;;4.20;2.78;;;;;;;;;;4984001;28;20053;-87
2022/06/27 06:48:32;;;;;;;4.03;2.70;;;;;;;;;;5000356;28;20030;-87
2022/06/27 06:50:57;;;;;;;5.20;2.97;;;;;;;;;;5006357;28;20393;-87
2022/06/27 06:53:22;;;;;;;4.47;2.90;;;;;;;;;;5007095;28;20055;-86
2022/06/27 06:55:48;;;;;;;3.78;2.58;;;;;;;;;;4991230;28;20034;-86
2022/06/27 06:58:14;;;;;;;3.85;2.75;;;;;;;;;;4990468;28;20041;-87
2022/06/27 07:00:39;;;;;;;3.97;2.72;;;;;;;;;;4990459;28;20040;-86
2022/06/27 07:03:06;;;;;;;4.75;2.95;;;;;;;;;;4990863;28;20173;-87
2022/06/27 07:05:32;;;;;;;3.63;2.78;;;;;;;;;;5007105;28;20092;-87
2022/06/27 07:08:00;;;;;;;3.80;3.00;;;;;;;;;;4990502;28;20440;-87
2022/06/27 07:10:26;;;;;;;3.40;2.60;;;;;;;;;;4992536;28;20046;-87
2022/06/27 07:12:51;;;;;;;3.85;2.58;;;;;;;;;;5000804;28;20045;-86
2022/06/27 07:15:17;;;;;;;3.90;2.95;;;;;;;;;;4989928;28;20041;-87
2022/06/27 07:17:45;;;;;;;3.92;2.80;;;;;;;;;;4990580;28;20129;-87
2022/06/27 07:20:11;;;;;;;3.70;2.38;;;;;;;;;;5005647;28;20516;-88
2022/06/27 07:22:38;;;;;;;8.57;2.67;;;;;;;;;;4994741;28;20487;-87
2022/06/27 07:25:04;;;;;;;4.13;2.22;;;;;;;;;;5006314;28;20042;-87
2022/06/27 07:27:31;;;;;;;4.13;2.70;;;;;;;;;;5005387;28;20042;-87
2022/06/27 07:29:57;;;;;;;4.10;2.50;;;;;;;;;;4984453;28;20030;-87
2022/06/27 07:32:23;;;;;;;3.15;2.35;;;;;;;;;;4991879;28;20049;-88
2022/06/27 07:34:48;;;;;;;3.30;2.40;;;;;;;;;;4993792;28;20022;-88
2022/06/27 07:37:17;;;;;;;3.45;2.38;;;;;;;;;;5005775;28;20041;-87
2022/06/27 07:39:42;;;;;;;4.13;2.40;;;;;;;;;;4990961;28;20041;-88
2022/06/27 07:42:08;;;;;;;3.40;2.38;;;;;;;;;;5006158;28;20042;-87
2022/06/27 07:44:34;;;;;;;3.55;2.38;;;;;;;;;;4982435;28;20041;-87
2022/06/27 07:47:01;;;;;;;3.40;2.30;;;;;;;;;;5004973;28;20464;-85
2022/06/27 07:49:26;;;;;;;4.13;2.35;;;;;;;;;;4999908;28;20493;-86
2022/06/27 07:51:52;;;;;;;3.40;2.33;;;;;;;;;;5005600;28;20038;-86
2022/06/27 07:54:19;;;;;;;4.15;2.78;;;;;;;;;;4989907;28;20057;-87
2022/06/27 07:56:46;;;;;;;3.90;2.55;;;;;;;;;;4989102;28;20520;-87
2022/06/27 07:59:13;;;;;;;3.63;2.30;;;;;;;;;;4990335;28;20062;-87
2022/06/27 08:01:39;;;;;;;;;;;;;;;;;;4989329;28;20029;-91
2022/06/27 08:04:06;;;;;;;2.78;1.98;;;;;;;;;;4988888;28;19917;-88
2022/06/27 08:06:31;;;;;;;3.37;2.13;;;;;;;;;;4982504;28;20038;-88
2022/06/27 08:09:03;;;;;;;3.35;2.10;;;;;;;;;;4990221;28;20041;-88
2022/06/27 08:11:31;;;;;;;3.03;1.83;;;;;;;;;;5004204;28;20034;-85
2022/06/27 08:14:03;;;;;;;4.75;2.22;;;;;;;;;;4988463;28;20033;-87
2022/06/27 08:16:29;;;;;;;2.50;1.70;;;;;;;;;;4989471;28;20527;-88
2022/06/27 08:18:55;;;;;;;3.30;1.63;;;;;;;;;;4982498;28;20084;-88
2022/06/27 08:21:23;;;;;;;3.90;1.90;;;;;;;;;;4988807;28;20582;-88
2022/06/27 08:23:49;;;;;;;3.67;1.70;;;;;;;;;;5005550;28;20048;-87
2022/06/27 08:26:18;;;;;;;3.33;1.70;;;;;;;;;;5004793;28;20410;-88
2022/06/27 08:28:47;;;;;;;2.85;1.50;;;;;;;;;;4990658;28;20038;-88
2022/06/27 08:31:14;;;;;;;2.50;1.20;;;;;;;;;;4997844;28;20064;-87
2022/06/27 08:33:41;;;;;;;2.65;1.45;;;;;;;;;;4988168;28;20041;-88
2022/06/27 08:36:08;;;;;;;2.90;2.05;;;;;;;;;;4988505;28;20701;-90
2022/06/27 08:38:39;;;;;;;5.32;1.83;;;;;;;;;;4982641;28;20034;-88
2022/06/27 08:41:05;;;;;;;3.22;1.90;;;;;;;;;;4989938;28;20454;-87
2022/06/27 08:43:31;;;;;;;3.10;1.80;;;;;;;;;;4984751;28;20497;-88
2022/06/27 08:45:57;;;;;;;2.97;1.87;;;;;;;;;;4988777;28;20026;-90
2022/06/27 08:48:23;;;;;;;3.25;2.00;;;;;;;;;;4989127;28;20116;-88
2022/06/27 08:50:50;;;;;;;3.13;1.60;;;;;;;;;;4988675;28;20124;-87
2022/06/27 08:53:16;;;;;;;3.35;1.50;;;;;;;;;;4990492;28;20038;-87
2022/06/27 08:55:46;;;;;;;4.68;1.70;;;;;;;;;;4991687;28;20065;-87
2022/06/27 08:58:12;;;;;;;2.95;1.40;;;;;;;;;;4995189;28;20616;-87
2022/06/27 09:00:41;;;;;;;3.88;1.65;;;;;;;;;;5005397;28;20041;-88
2022/06/27 09:03:08;;;;;;;3.13;1.60;;;;;;;;;;4989832;28;20073;-87
2022/06/27 09:05:34;;;;;;;2.60;1.58;;;;;;;;;;5007006;28;20193;-86
2022/06/27 09:08:02;;;;;;;4.00;1.60;;;;;;;;;;5005769;28;20042;-86
2022/06/27 09:10:40;;;;;;;2.22;1.20;;;;;;;;;;4990157;28;20030;-85
2022/06/27 09:13:15;;;;;;;1.80;0.95;;;;;;;;;;4983358;28;20037;-81
2022/06/27 09:16:00;;;;;;;3.28;1.20;;;;;;;;;;4990450;28;20033;-86
2022/06/27 09:18:27;;;;;;;1.40;0.80;;;;;;;;;;5004273;28;20030;-86
2022/06/27 09:21:01;;;;;;;4.43;1.30;;;;;;;;;;5003867;28;20064;-85
2022/06/27 09:23:35;;;;;;;2.40;1.17;;;;;;;;;;5002978;28;20050;-85
2022/06/27 09:26:08;;;;;;;2.10;1.00;;;;;;;;;;4987349;28;20076;-84
2022/06/27 09:28:41;;;;;;;1.80;1.10;;;;;;;;;;4986898;28;20705;-86
2022/06/27 09:31:28;;;;;;;1.70;0.98;;;;;;;;;;5004129;28;20537;-85
2022/06/27 09:34:18;;;;;;;2.00;1.10;;;;;;;;;;5004335;28;21516;-83
2022/06/27 09:36:55;;;;;;;2.30;1.20;;;;;;;;;;4993953;28;20497;-84
2022/06/27 09:39:29;;;;;;;2.47;1.30;;;;;;;;;;5019214;28;20044;-84
2022/06/27 09:41:59;;;;;;;3.03;1.20;;;;;;;;;;4986867;28;20042;-85
2022/06/27 09:44:30;;;;;;;1.90;1.10;;;;;;;;;;5002784;28;20048;-85
2022/06/27 09:47:29;;;;;;;2.40;1.10;;;;;;;;;;4983112;28;20057;-85
2022/06/27 09:49:59;;;;;;;3.72;1.17;;;;;;;;;;5003444;28;20034;-84
2022/06/27 09:52:26;;;;;;;2.78;1.20;;;;;;;;;;4987662;28;20038;-84
2022/06/27 09:54:55;;;;;;;1.92;1.00;;;;;;;;;;4982999;28;20046;-86
2022/06/27 09:57:21;;;;;;;4.18;1.13;;;;;;;;;;4986345;28;20042;-85
2022/06/27 09:59:51;;;;;;;1.83;0.80;;;;;;;;;;4985509;28;20030;-88
2022/06/27 10:02:18;;;;;;;3.53;0.93;;;;;;;;;;4971880;28;20038;-85
2022/06/27 10:04:47;;;;;;;2.30;0.90;;;;;;;;;;4999501;28;20034;-85
2022/06/27 10:07:15;;;;;;;1.55;0.77;;;;;;;;;;5003732;28;20037;-83
2022/06/27 10:09:42;;;;;;;1.30;0.70;;;;;;;;;;4986036;28;20040;-84
2022/06/27 10:12:27;;;;;;;1.80;0.80;;;;;;;;;;4997424;28;20073;-83
2022/06/27 10:15:11;;;;;;;1.58;0.77;;;;;;;;;;5018908;28;20562;-85
2022/06/27 10:17:38;;;;;;;2.33;1.20;;;;;;;;;;5003421;28;20045;-86
2022/06/27 10:20:07;;;;;;;1.85;0.90;;;;;;;;;;5003616;28;20038;-85
2022/06/27 10:22:35;;;;;;;2.35;0.77;;;;;;;;;;4986511;28;20108;-85
2022/06/27 10:25:26;;;;;;;1.67;0.77;;;;;;;;;;4987906;28;20597;-84
2022/06/27 10:28:13;;;;;;;1.80;0.70;;;;;;;;;;5017952;28;20045;-85
2022/06/27 10:30:49;;;;;;;1.65;0.80;;;;;;;;;;5019320;28;20129;-86
2022/06/27 10:33:26;;;;;;;1.52;0.80;;;;;;;;;;5019363;28;20049;-86
2022/06/27 10:35:54;;;;;;;1.48;0.75;;;;;;;;;;5017302;28;20038;-86
2022/06/27 10:38:23;;;;;;;1.55;0.80;;;;;;;;;;5003348;28;20509;-85
2022/06/27 10:40:50;;;;;;;2.60;0.82;;;;;;;;;;5002718;28;20875;-86
2022/06/27 10:43:37;;;;;;;1.65;0.90;;;;;;;;;;4986005;28;20040;-85
2022/06/27 10:46:09;;;;;;;1.92;0.90;;;;;;;;;;5002129;28;20045;-85
2022/06/27 10:48:42;;;;;;;1.83;0.88;;;;;;;;;;5004042;28;20119;-85
2022/06/27 10:51:19;;;;;;;1.50;0.90;;;;;;;;;;4996110;28;20141;-83
2022/06/27 10:53:46;;;;;;;2.35;1.00;;;;;;;;;;5007334;28;20041;-86
2022/06/27 10:56:29;;;;;;;1.60;0.80;;;;;;;;;;5002854;28;20469;-84
2022/06/27 10:58:56;;;;;;;3.20;1.10;;;;;;;;;;4980361;28;20466;-84
2022/06/27 11:01:21;;;;;;;2.55;1.00;;;;;;;;;;4986734;28;20065;-85
2022/06/27 11:03:50;;;;;;;2.08;0.98;;;;;;;;;;5005906;28;20054;-84
2022/06/27 11:06:16;;;;;;;1.92;0.90;;;;;;;;;;4989832;28;20038;-82
2022/06/27 11:08:46;;;;;;;1.60;0.90;;;;;;;;;;4989699;28;20542;-86
2022/06/27 11:11:27;;;;;;;1.50;0.80;;;;;;;;;;4989545;28;20041;-85
2022/06/27 11:13:55;;;;;;;2.47;1.10;;;;;;;;;;4999398;28;20096;-85
2022/06/27 11:16:26;;;;;;;3.13;1.00;;;;;;;;;;5006491;28;20037;-84
2022/06/27 11:20:04;;;;;;;2.30;1.30;;;;;;;;;;4977714;28;20041;-87
2022/06/27 11:21:53;;;;;;;2.25;0.93;;;;;;;;;;5002305;28;20037;-84
2022/06/27 11:24:40;;;;;;;4.43;0.90;;;;;;;;;;4989675;28;20398;-85
2022/06/27 11:27:05;;;;;;;2.08;0.90;;;;;;;;;;4943645;28;20047;-88
2022/06/27 11:32:18;;;;;;;2.88;1.00;;;;;;;;;;4930315;28;20050;-89
2022/06/27 11:34:51;;;;;;;2.58;1.17;;;;;;;;;;4881963;29;20047;-90
2022/06/27 11:37:19;;;;;;;2.35;0.85;;;;;;;;;;4902425;28;20464;-91
2022/06/27 11:39:59;;;;;;;2.08;1.00;;;;;;;;;;4932601;28;20063;-90
2022/06/27 11:42:32;;;;;;;2.63;1.08;;;;;;;;;;4920807;29;20045;-90
2022/06/27 11:45:30;;;;;;;2.15;1.00;;;;;;;;;;4936260;28;20498;-91
2022/06/27 11:47:55;;;;;;;2.70;1.38;;;;;;;;;;4900120;29;20919;-89
2022/06/27 11:50:21;;;;;;;2.75;1.30;;;;;;;;;;4930207;28;20043;-90
2022/06/27 11:52:51;;;;;;;3.33;1.20;;;;;;;;;;4923957;29;20415;-91
2022/06/27 11:55:31;;;;;;;2.22;1.25;;;;;;;;;;4940975;28;20054;-89
2022/06/27 11:58:01;;;;;;;2.17;1.10;;;;;;;;;;4925184;29;20107;-85
2022/06/27 12:00:30;;;;;;;3.78;1.33;;;;;;;;;;4937913;29;20039;-85
2022/06/27 12:02:58;;;;;;;2.85;1.05;;;;;;;;;;4922772;28;20503;-88
2022/06/27 12:05:28;;;;;;;2.60;1.42;;;;;;;;;;4998165;28;20111;-90
2022/06/27 12:08:08;;;;;;;2.72;1.20;;;;;;;;;;4983396;28;20042;-89
2022/06/27 12:10:45;;;;;;;2.60;1.33;;;;;;;;;;4994749;28;20496;-89
2022/06/27 12:13:15;;;;;;;2.97;1.00;;;;;;;;;;4988283;28;20064;-88
2022/06/27 12:15:45;;;;;;;3.80;1.50;;;;;;;;;;4970573;28;20453;-88
2022/06/27 12:18:13;;;;;;;2.55;1.17;;;;;;;;;;4981445;28;20571;-90
2022/06/27 12:20:41;;;;;;;2.67;0.95;;;;;;;;;;5003971;28;20121;-87
2022/06/27 12:23:07;;;;;;;3.13;1.30;;;;;;;;;;4988002;28;20034;-89
2022/06/27 12:25:35;;;;;;;4.78;1.20;;;;;;;;;;4998793;28;20033;-90
2022/06/27 12:28:02;;;;;;;1.73;0.80;;;;;;;;;;5006611;28;20037;-88
2022/06/27 12:30:28;;;;;;;2.10;1.10;;;;;;;;;;4991050;28;20442;-89
2022/06/27 12:32:53;;;;;;;2.00;1.07;;;;;;;;;;4982053;28;20166;-87
2022/06/27 12:35:22;;;;;;;2.07;0.90;;;;;;;;;;4983640;28;20042;-87
2022/06/27 12:37:50;;;;;;;2.78;0.95;;;;;;;;;;4980461;28;20041;-86
2022/06/27 12:40:15;;;;;;;3.30;1.10;;;;;;;;;;4987603;28;20586;-87
2022/06/27 12:42:40;;;;;;;2.67;1.23;;;;;;;;;;4989554;28;20113;-88
2022/06/27 12:45:06;;;;;;;2.10;1.10;;;;;;;;;;4999250;28;20034;-89
2022/06/27 12:47:32;;;;;;;2.20;1.10;;;;;;;;;;4980286;28;20130;-87
2022/06/27 12:49:58;;;;;;;1.83;1.05;;;;;;;;;;4993454;28;20125;-87
2022/06/27 12:52:26;;;;;;;1.73;0.97;;;;;;;;;;4987569;28;20125;-89
2022/06/27 12:54:54;;;;;;;1.77;0.80;;;;;;;;;;4988587;28;20029;-87
2022/06/27 12:57:20;;;;;;;1.80;0.70;;;;;;;;;;5003300;28;20042;-88
2022/06/27 12:59:48;;;;;;;1.98;0.98;;;;;;;;;;4988997;28;20397;-89
2022/06/27 13:02:16;;;;;;;2.10;1.08;;;;;;;;;;5004855;28;20552;-88
2022/06/27 13:04:41;;;;;;;1.83;1.00;;;;;;;;;;4998212;28;20067;-87
2022/06/27 13:07:07;;;;;;;1.77;0.98;;;;;;;;;;4995757;28;20034;-88
2022/06/27 13:09:32;;;;;;;1.38;0.80;;;;;;;;;;5003436;28;20044;-88
2022/06/27 13:11:58;;;;;;;1.45;0.80;;;;;;;;;;4987084;28;20037;-89
2022/06/27 13:14:23;;;;;;;2.63;1.10;;;;;;;;;;4989336;28;20755;-90
2022/06/27 13:16:50;;;;;;;2.38;1.33;;;;;;;;;;4992702;28;20031;-88
2022/06/27 13:19:16;;;;;;;1.88;1.00;;;;;;;;;;4996765;28;20099;-89
2022/06/27 13:21:44;;;;;;;2.72;0.90;;;;;;;;;;4987094;28;20041;-89
2022/06/27 13:24:10;;;;;;;2.97;0.88;;;;;;;;;;4958180;28;20055;-92
2022/06/27 13:26:38;;;;;;;1.80;0.80;;;;;;;;;;4968369;28;20517;-88
2022/06/27 13:29:04;;;;;;;1.58;0.70;;;;;;;;;;4985326;28;20157;-90
2022/06/27 13:31:29;;;;;;;1.57;0.60;;;;;;;;;;4962867;28;20122;-88
2022/06/27 13:33:54;;;;;;;1.03;0.50;;;;;;;;;;4949195;28;20109;-88
2022/06/27 13:36:23;;;;;;;1.40;0.60;;;;;;;;;;4965101;28;20448;-91
2022/06/27 13:38:50;;;;;;;1.17;0.60;;;;;;;;;;4968776;28;20030;-86
2022/06/27 13:41:15;;;;;;;1.67;0.70;;;;;;;;;;4961837;28;20058;-90
2022/06/27 13:43:44;;;;;;;1.90;0.80;;;;;;;;;;4967365;28;20729;-88
2022/06/27 13:46:10;;;;;;;1.75;0.60;;;;;;;;;;4967958;28;20775;-90
2022/06/27 13:48:35;;;;;;;1.10;0.53;;;;;;;;;;4963187;28;20035;-89
2022/06/27 13:51:01;;;;;;;2.27;0.73;;;;;;;;;;4936604;28;21110;-88
2022/06/27 13:53:26;;;;;;;1.70;0.87;;;;;;;;;;4964526;28;20409;-90
2022/06/27 13:55:52;;;;;;;1.53;0.80;;;;;;;;;;4967997;28;20081;-89
2022/06/27 13:58:17;;;;;;;2.53;1.23;;;;;;;;;;4952920;28;20076;-91
2022/06/27 14:00:43;;;;;;;2.30;1.10;;;;;;;;;;4952576;28;20513;-89
2022/06/27 14:03:09;;;;;;;1.77;0.87;;;;;;;;;;4962035;28;20042;-89
2022/06/27 14:05:34;;;;;;;1.67;0.98;;;;;;;;;;4959352;28;20035;-89
2022/06/27 14:08:00;;;;;;;2.00;1.02;;;;;;;;;;4967409;28;20038;-89
2022/06/27 14:10:28;;;;;;;1.70;0.90;;;;;;;;;;4957235;28;20100;-90
2022/06/27 14:12:54;;;;;;;2.50;0.93;;;;;;;;;;4983218;28;20509;-90
2022/06/27 14:15:21;;;;;;;1.93;0.93;;;;;;;;;;4958775;28;20035;-92
2022/06/27 14:17:48;;;;;;;1.90;1.10;;;;;;;;;;4935284;28;20039;-91
2022/06/27 14:20:15;;;;;;;6.63;1.27;;;;;;;;;;4963502;28;20042;-91
2022/06/27 14:22:43;;;;;;;;;;;;;;;;;;4953291;28;20104;-90
2022/06/27 14:25:09;;;;;;;2.85;1.00;;;;;;;;;;4958427;28;20280;-88
2022/06/27 14:27:35;;;;;;;2.38;1.30;;;;;;;;;;4957576;28;20039;-92
2022/06/27 14:30:02;;;;;;;3.03;1.17;;;;;;;;;;4972666;28;20518;-89
2022/06/27 14:32:28;;;;;;;2.17;1.10;;;;;;;;;;4957592;28;20042;-84
2022/06/27 14:34:54;;;;;;;2.10;1.20;;;;;;;;;;4993667;28;20378;-91
2022/06/27 14:37:20;;;;;;;2.33;1.35;;;;;;;;;;4967391;28;20038;-90
2022/06/27 14:39:46;;;;;;;2.20;1.10;;;;;;;;;;4995627;28;20360;-90
2022/06/27 14:42:11;;;;;;;2.17;1.10;;;;;;;;;;4977025;28;20037;-90
2022/06/27 14:44:40;;;;;;;2.13;1.25;;;;;;;;;;4975985;28;20164;-91
2022/06/27 14:47:11;;;;;;;2.33;1.30;;;;;;;;;;4945797;28;20045;-93
2022/06/27 14:49:37;;;;;;;2.13;1.10;;;;;;;;;;4953878;28;20042;-90